createdAt,value
2023-05-20T00:02:18.445Z,98540.78
2023-05-20T00:04:46.185Z,98539.16
2023-05-20T00:07:13.721Z,98540.41
2023-05-20T00:09:41.303Z,98541.63
2023-05-20T00:12:08.851Z,98535.09
2023-05-20T00:14:36.675Z,98531.38
2023-05-20T00:17:04.253Z,98524.44
2023-05-20T00:19:31.988Z,98523.41
2023-05-20T00:21:59.577Z,98529.34
2023-05-20T00:24:27.784Z,98529.97
2023-05-20T00:26:55.282Z,98534.44
2023-05-20T00:29:22.887Z,98528.94
2023-05-20T00:31:50.564Z,98527.69
2023-05-20T00:34:18.138Z,98532.03
2023-05-20T00:36:45.699Z,98521.16
2023-05-20T00:39:13.264Z,98528.53
2023-05-20T00:41:40.990Z,98525.03
2023-05-20T00:44:08.608Z,98522.38
2023-05-20T00:46:36.446Z,98523.81
2023-05-20T00:49:05.286Z,98519.53
2023-05-20T00:51:33.866Z,98517.91
2023-05-20T00:54:01.492Z,98519.53
2023-05-20T00:56:30.040Z,98524.06
2023-05-20T00:58:58.390Z,98526.50
2023-05-20T01:01:26.008Z,98527.75
2023-05-20T01:03:53.541Z,98530.59
2023-05-20T01:06:21.547Z,98534.91
2023-05-20T01:08:49.184Z,98533.06
2023-05-20T01:11:29.142Z,98528.94
2023-05-20T01:14:02.360Z,98541.06
2023-05-20T01:16:34.230Z,98538.19
2023-05-20T01:19:02.977Z,98536.97
2023-05-20T01:21:31.664Z,98535.13
2023-05-20T01:23:59.237Z,98540.84
2023-05-20T01:26:28.088Z,98533.06
2023-05-20T01:28:58.206Z,98528.75
2023-05-20T01:31:32.782Z,98524.44
2023-05-20T01:34:01.669Z,98527.13
2023-05-20T01:36:31.536Z,98531.81
2023-05-20T01:39:00.243Z,98531.81
2023-05-20T01:41:30.358Z,98533.44
2023-05-20T01:43:57.977Z,98529.72
2023-05-20T01:46:25.840Z,98529.97
2023-05-20T01:48:53.388Z,98529.38
2023-05-20T01:51:21.146Z,98536.16
2023-05-20T01:53:49.024Z,98525.91
2023-05-20T01:56:16.599Z,98530.81
2023-05-20T01:58:44.596Z,98532.44
2023-05-20T02:01:12.186Z,98529.38
2023-05-20T02:03:39.771Z,98528.16
2023-05-20T02:06:07.291Z,98525.91
2023-05-20T02:08:34.891Z,98522.22
2023-05-20T02:11:02.600Z,98526.72
2023-05-20T02:13:30.428Z,98533.25
2023-05-20T02:15:58.152Z,98526.09
2023-05-20T02:18:26.806Z,98527.56
2023-05-20T02:20:54.564Z,98522.41
2023-05-20T02:23:22.166Z,98527.72
2023-05-20T02:25:49.676Z,98514.81
2023-05-20T02:28:17.363Z,98518.69
2023-05-20T02:30:44.964Z,98515.22
2023-05-20T02:33:12.561Z,98516.66
2023-05-20T02:35:40.715Z,98516.03
2023-05-20T02:38:08.367Z,98510.72
2023-05-20T02:40:37.563Z,98507.63
2023-05-20T02:43:05.240Z,98497.81
2023-05-20T02:45:35.415Z,98503.69
2023-05-20T02:48:03.253Z,98512.06
2023-05-20T02:50:32.389Z,98511.03
2023-05-20T02:53:00.401Z,98515.94
2023-05-20T02:55:28.439Z,98502.00
2023-05-20T02:57:56.445Z,98498.94
2023-05-20T03:00:24.794Z,98501.66
2023-05-20T03:02:52.428Z,98507.56
2023-05-20T03:05:20.060Z,98504.09
2023-05-20T03:07:48.889Z,98498.38
2023-05-20T03:10:16.453Z,98494.91
2023-05-20T03:12:45.165Z,98494.50
2023-05-20T03:15:12.724Z,98498.22
2023-05-20T03:17:40.423Z,98500.06
2023-05-20T03:20:08.574Z,98502.91
2023-05-20T03:22:36.382Z,98507.25
2023-05-20T03:25:05.615Z,98500.91
2023-05-20T03:27:34.562Z,98503.19
2023-05-20T03:30:03.613Z,98498.66
2023-05-20T03:32:32.095Z,98496.63
2023-05-20T03:35:00.199Z,98506.66
2023-05-20T03:37:27.770Z,98501.53
2023-05-20T03:39:55.593Z,98508.09
2023-05-20T03:42:23.108Z,98503.59
2023-05-20T03:44:51.163Z,98492.50
2023-05-20T03:47:20.194Z,98499.66
2023-05-20T03:49:47.932Z,98505.22
2023-05-20T03:52:15.453Z,98506.63
2023-05-20T03:54:43.138Z,98503.16
2023-05-20T03:57:10.777Z,98499.88
2023-05-20T03:59:38.713Z,98503.13
2023-05-20T04:02:06.560Z,98500.88
2023-05-20T04:04:34.304Z,98499.00
2023-05-20T04:07:03.354Z,98498.97
2023-05-20T04:09:31.641Z,98507.16
2023-05-20T04:11:59.190Z,98496.69
2023-05-20T04:14:26.770Z,98504.69
2023-05-20T04:16:54.933Z,98509.78
2023-05-20T04:19:24.357Z,98504.63
2023-05-20T04:21:52.231Z,98509.94
2023-05-20T04:24:19.859Z,98495.97
2023-05-20T04:26:48.421Z,98506.66
2023-05-20T04:29:16.227Z,98508.91
2023-05-20T04:31:45.794Z,98509.31
2023-05-20T04:34:15.201Z,98509.44
2023-05-20T04:36:43.732Z,98502.06
2023-05-20T04:39:11.342Z,98501.25
2023-05-20T04:41:40.069Z,98512.34
2023-05-20T04:44:07.573Z,98507.25
2023-05-20T04:46:35.312Z,98513.59
2023-05-20T04:49:04.609Z,98515.28
2023-05-20T04:51:32.239Z,98513.59
2023-05-20T04:53:59.851Z,98512.19
2023-05-20T04:56:29.696Z,98508.25
2023-05-20T04:58:57.407Z,98507.06
2023-05-20T05:01:25.069Z,98500.69
2023-05-20T05:03:52.726Z,98498.44
2023-05-20T05:06:22.088Z,98491.91
2023-05-20T05:08:50.319Z,98489.19
2023-05-20T05:11:17.845Z,98497.16
2023-05-20T05:13:46.705Z,98502.50
2023-05-20T05:16:14.884Z,98491.63
2023-05-20T05:18:43.327Z,98502.09
2023-05-20T05:21:11.303Z,98499.25
2023-05-20T05:23:38.995Z,98495.50
2023-05-20T05:26:06.655Z,98493.63
2023-05-20T05:28:34.193Z,98496.94
2023-05-20T05:31:02.523Z,98502.22
2023-05-20T05:33:30.960Z,98493.63
2023-05-20T05:35:59.443Z,98504.41
2023-05-20T05:38:27.563Z,98495.69
2023-05-20T05:40:55.231Z,98489.41
2023-05-20T05:43:23.460Z,98492.13
2023-05-20T05:45:51.932Z,98493.78
2023-05-20T05:48:19.444Z,98489.94
2023-05-20T05:50:47.456Z,98490.13
2023-05-20T05:53:17.218Z,98489.06
2023-05-20T05:55:48.356Z,98493.50
2023-05-20T05:58:17.744Z,98492.34
2023-05-20T06:00:46.040Z,98487.75
2023-05-20T06:03:13.755Z,98487.56
2023-05-20T06:05:45.024Z,98481.56
2023-05-20T06:08:13.240Z,98485.56
2023-05-20T06:10:40.866Z,98489.03
2023-05-20T06:13:08.485Z,98485.22
2023-05-20T06:15:36.751Z,98496.97
2023-05-20T06:18:04.574Z,98491.78
2023-05-20T06:20:33.412Z,98485.41
2023-05-20T06:23:01.096Z,98479.75
2023-05-20T06:25:37.060Z,98482.03
2023-05-20T06:28:05.123Z,98475.69
2023-05-20T06:30:33.319Z,98489.22
2023-05-20T06:33:01.660Z,98481.31
2023-05-20T06:35:29.261Z,98484.50
2023-05-20T06:37:57.014Z,98475.44
2023-05-20T06:40:24.562Z,98476.81
2023-05-20T06:42:52.218Z,98474.19
2023-05-20T06:45:35.425Z,98467.88
2023-05-20T06:48:20.426Z,98474.47
2023-05-20T06:50:47.941Z,98471.91
2023-05-20T06:53:15.538Z,98470.31
2023-05-20T06:55:43.071Z,98468.03
2023-05-20T06:58:11.280Z,98471.00
2023-05-20T07:00:40.219Z,98463.25
2023-05-20T07:03:08.169Z,98462.34
2023-05-20T07:05:36.097Z,98461.03
2023-05-20T07:08:04.349Z,98452.53
2023-05-20T07:10:32.033Z,98442.88
2023-05-20T07:12:59.674Z,98438.94
2023-05-20T07:15:27.286Z,98444.19
2023-05-20T07:17:54.923Z,98439.31
2023-05-20T07:20:22.671Z,98432.56
2023-05-20T07:22:51.187Z,98421.97
2023-05-20T07:25:32.177Z,98423.81
2023-05-20T07:28:00.741Z,98422.50
2023-05-20T07:30:28.741Z,98422.50
2023-05-20T07:33:19.407Z,98430.34
2023-05-20T07:35:47.895Z,98423.81
2023-05-20T07:38:15.862Z,98425.66
2023-05-20T07:40:45.650Z,98425.75
2023-05-20T07:43:14.809Z,98437.13
2023-05-20T07:45:43.062Z,98444.19
2023-05-20T07:48:13.161Z,98435.88
2023-05-20T07:50:41.032Z,98433.97
2023-05-20T07:53:09.772Z,98438.25
2023-05-20T07:55:37.352Z,98421.41
2023-05-20T07:58:06.294Z,98422.38
2023-05-20T08:00:36.015Z,98417.94
2023-05-20T08:03:08.294Z,98413.91
2023-05-20T08:05:59.141Z,98413.31
2023-05-20T08:08:29.169Z,98404.03
2023-05-20T08:11:04.280Z,98403.97
2023-05-20T08:13:32.773Z,98414.31
2023-05-20T08:16:04.177Z,98404.97
2023-05-20T08:18:36.675Z,98402.66
2023-05-20T08:21:08.161Z,98400.03
2023-05-20T08:23:40.192Z,98407.34
2023-05-20T08:26:08.410Z,98401.91
2023-05-20T08:28:39.108Z,98396.44
2023-05-20T08:31:09.280Z,98397.59
2023-05-20T08:33:36.774Z,98390.44
2023-05-20T08:36:04.668Z,98386.78
2023-05-20T08:38:32.226Z,98385.03
2023-05-20T08:41:01.368Z,98387.41
2023-05-20T08:43:32.678Z,98384.09
2023-05-20T08:46:05.519Z,98374.75
2023-05-20T08:48:35.975Z,98372.84
2023-05-20T08:51:04.890Z,98371.78
2023-05-20T08:53:32.467Z,98368.84
2023-05-20T08:56:03.348Z,98362.97
2023-05-20T08:58:32.941Z,98369.63
2023-05-20T09:01:01.103Z,98369.94
2023-05-20T09:03:29.045Z,98357.53
2023-05-20T09:06:17.471Z,98364.03
2023-05-20T09:08:45.072Z,98363.47
2023-05-20T09:11:13.361Z,98369.72
2023-05-20T09:13:40.861Z,98357.03
2023-05-20T09:16:11.174Z,98354.06
2023-05-20T09:18:40.397Z,98352.72
2023-05-20T09:21:08.119Z,98366.09
2023-05-20T09:23:38.825Z,98356.44
2023-05-20T09:26:07.014Z,98361.50
2023-05-20T09:28:36.167Z,98354.56
2023-05-20T09:31:06.812Z,98358.03
2023-05-20T09:33:35.848Z,98366.97
2023-05-20T09:36:04.839Z,98352.13
2023-05-20T09:38:39.137Z,98347.81
2023-05-20T09:41:14.131Z,98337.00
2023-05-20T09:43:42.131Z,98338.38
2023-05-20T09:46:11.030Z,98357.00
2023-05-20T09:48:40.049Z,98337.03
2023-05-20T09:51:08.200Z,98332.66
2023-05-20T09:53:36.341Z,98336.44
2023-05-20T09:56:04.282Z,98339.13
2023-05-20T09:58:36.065Z,98350.22
2023-05-20T10:01:03.985Z,98332.94
2023-05-20T10:03:33.601Z,98330.00
2023-05-20T10:06:10.447Z,98315.91
2023-05-20T10:09:10.362Z,98312.94
2023-05-20T10:11:56.543Z,98328.13
2023-05-20T10:14:27.104Z,98326.44
2023-05-20T10:17:09.139Z,98317.59
2023-05-20T10:19:36.953Z,98307.00
2023-05-20T10:22:06.752Z,98308.88
2023-05-20T10:24:44.498Z,98308.91
2023-05-20T10:27:15.875Z,98301.88
2023-05-20T10:30:01.388Z,98292.69
2023-05-20T10:32:33.464Z,98292.91
2023-05-20T10:35:05.927Z,98290.34
2023-05-20T10:37:45.245Z,98298.44
2023-05-20T10:40:18.315Z,98295.09
2023-05-20T10:42:46.448Z,98294.06
2023-05-20T10:45:29.098Z,98290.09
2023-05-20T10:47:58.610Z,98298.03
2023-05-20T10:50:37.436Z,98284.34
2023-05-20T10:53:09.380Z,98278.44
2023-05-20T10:55:42.268Z,98278.13
2023-05-20T10:58:10.369Z,98275.38
2023-05-20T11:00:39.321Z,98271.75
2023-05-20T11:03:07.775Z,98268.31
2023-05-20T11:05:36.440Z,98272.03
2023-05-20T11:08:16.971Z,98266.22
2023-05-20T11:10:57.271Z,98276.22
2023-05-20T11:13:25.879Z,98277.56
2023-05-20T11:15:53.758Z,98277.53
2023-05-20T11:18:21.908Z,98271.09
2023-05-20T11:20:49.740Z,98255.44
2023-05-20T11:23:17.478Z,98269.47
2023-05-20T11:25:45.017Z,98256.22
2023-05-20T11:28:15.372Z,98271.63
2023-05-20T11:30:43.907Z,98252.72
2023-05-20T11:33:16.101Z,98250.28
2023-05-20T11:35:49.653Z,98253.25
2023-05-20T11:38:18.151Z,98244.88
2023-05-20T11:40:54.006Z,98243.81
2023-05-20T11:43:23.330Z,98239.19
2023-05-20T11:45:56.411Z,98233.81
2023-05-20T11:48:24.641Z,98234.06
2023-05-20T11:50:54.500Z,98231.91
2023-05-20T11:53:24.416Z,98226.78
2023-05-20T11:56:00.181Z,98217.28
2023-05-20T11:58:31.598Z,98228.91
2023-05-20T12:01:09.607Z,98230.78
2023-05-20T12:03:47.117Z,98227.53
2023-05-20T12:06:14.959Z,98228.56
2023-05-20T12:08:42.700Z,98214.44
2023-05-20T12:11:10.363Z,98216.84
2023-05-20T12:13:38.505Z,98206.09
2023-05-20T12:16:06.507Z,98212.06
2023-05-20T12:18:34.375Z,98207.50
2023-05-20T12:21:02.271Z,98213.38
2023-05-20T12:23:34.198Z,98197.78
2023-05-20T12:26:02.067Z,98200.50
2023-05-20T12:28:29.586Z,98197.09
2023-05-20T12:30:57.081Z,98187.91
2023-05-20T12:33:24.765Z,98203.06
2023-05-20T12:35:52.188Z,98210.72
2023-05-20T12:38:20.197Z,98179.25
2023-05-20T12:40:47.797Z,98177.25
2023-05-20T12:43:15.344Z,98180.28
2023-05-20T12:45:42.880Z,98185.16
2023-05-20T12:48:10.494Z,98182.44
2023-05-20T12:50:38.183Z,98184.63
2023-05-20T12:53:05.899Z,98178.63
2023-05-20T12:55:33.412Z,98174.66
2023-05-20T12:58:01.176Z,98177.53
2023-05-20T13:00:29.277Z,98169.31
2023-05-20T13:02:56.910Z,98170.03
2023-05-20T13:05:24.550Z,98165.28
2023-05-20T13:07:52.180Z,98160.81
2023-05-20T13:10:20.139Z,98150.78
2023-05-20T13:12:47.862Z,98154.44
2023-05-20T13:15:15.716Z,98153.06
2023-05-20T13:17:43.360Z,98155.94
2023-05-20T13:20:12.033Z,98141.91
2023-05-20T13:22:39.610Z,98135.63
2023-05-20T13:25:07.968Z,98123.44
2023-05-20T13:27:35.681Z,98144.19
2023-05-20T13:30:04.299Z,98139.88
2023-05-20T13:32:31.791Z,98136.09
2023-05-20T13:34:59.948Z,98126.84
2023-05-20T13:37:27.567Z,98144.19
2023-05-20T13:39:55.220Z,98129.97
2023-05-20T13:42:22.855Z,98120.38
2023-05-20T13:44:50.410Z,98137.59
2023-05-20T13:47:17.943Z,98124.66
2023-05-20T13:49:45.566Z,98128.84
2023-05-20T13:52:13.055Z,98132.66
2023-05-20T13:54:43.098Z,98121.88
2023-05-20T13:57:10.798Z,98117.38
2023-05-20T13:59:38.795Z,98116.19
2023-05-20T14:02:07.203Z,98117.28
2023-05-20T14:04:38.408Z,98119.28
2023-05-20T14:07:09.066Z,98121.75
2023-05-20T14:09:37.320Z,98112.63
2023-05-20T14:12:05.906Z,98113.47
2023-05-20T14:14:33.489Z,98103.47
2023-05-20T14:17:01.149Z,98130.72
2023-05-20T14:19:31.606Z,98100.56
2023-05-20T14:22:01.705Z,98104.94
2023-05-20T14:24:29.511Z,98104.66
2023-05-20T14:26:57.245Z,98122.28
2023-05-20T14:29:24.847Z,98104.72
2023-05-20T14:31:52.440Z,98098.84
2023-05-20T14:34:19.974Z,98102.72
2023-05-20T14:36:47.918Z,98094.28
2023-05-20T14:39:15.527Z,98090.00
2023-05-20T14:41:42.978Z,98088.22
2023-05-20T14:44:10.606Z,98101.97
2023-05-20T14:46:38.287Z,98090.78
2023-05-20T14:49:05.958Z,98084.13
2023-05-20T14:51:33.522Z,98085.50
2023-05-20T14:54:01.157Z,98098.00
2023-05-20T14:56:28.893Z,98098.94
2023-05-20T14:58:56.452Z,98104.25
2023-05-20T15:01:24.205Z,98087.91
2023-05-20T15:03:51.772Z,98093.44
2023-05-20T15:06:19.977Z,98097.44
2023-05-20T15:08:47.721Z,98091.72
2023-05-20T15:11:15.270Z,98094.81
2023-05-20T15:13:44.273Z,98103.63
2023-05-20T15:16:12.001Z,98096.28
2023-05-20T15:18:39.701Z,98089.84
2023-05-20T15:21:07.236Z,98090.41
2023-05-20T15:23:34.712Z,98087.47
2023-05-20T15:26:02.478Z,98082.28
2023-05-20T15:28:29.986Z,98081.13
2023-05-20T15:30:57.552Z,98083.22
2023-05-20T15:33:25.343Z,98092.63
2023-05-20T15:35:52.954Z,98088.06
2023-05-20T15:38:20.641Z,98083.31
2023-05-20T15:40:50.374Z,98095.50
2023-05-20T15:43:18.708Z,98087.69
2023-05-20T15:45:49.414Z,98080.34
2023-05-20T15:48:17.310Z,98082.03
2023-05-20T15:50:44.921Z,98066.59
2023-05-20T15:53:14.719Z,98064.03
2023-05-20T15:55:43.034Z,98071.06
2023-05-20T15:58:11.660Z,98065.09
2023-05-20T16:00:39.425Z,98064.78
2023-05-20T16:03:07.067Z,98075.41
2023-05-20T16:05:34.913Z,98057.44
2023-05-20T16:08:02.529Z,98081.34
2023-05-20T16:10:33.144Z,98068.50
2023-05-20T16:13:01.703Z,98063.72
2023-05-20T16:15:35.691Z,98068.34
2023-05-20T16:18:03.695Z,98062.41
2023-05-20T16:20:31.356Z,98058.97
2023-05-20T16:22:58.921Z,98059.47
2023-05-20T16:25:26.710Z,98055.66
2023-05-20T16:27:54.233Z,98060.22
2023-05-20T16:30:21.774Z,98059.16
2023-05-20T16:32:52.096Z,98065.91
2023-05-20T16:35:19.621Z,98066.09
2023-05-20T16:37:47.230Z,98053.19
2023-05-20T16:40:14.773Z,98061.34
2023-05-20T16:42:44.088Z,98055.91
2023-05-20T16:45:11.992Z,98059.16
2023-05-20T16:47:39.562Z,98061.38
2023-05-20T16:50:07.783Z,98049.13
2023-05-20T16:52:35.915Z,98063.72
2023-05-20T16:55:04.830Z,98054.00
2023-05-20T16:57:32.717Z,98057.81
2023-05-20T17:00:00.516Z,98054.84
2023-05-20T17:02:28.153Z,98056.50
2023-05-20T17:04:55.658Z,98070.06
2023-05-20T17:07:23.199Z,98065.22
2023-05-20T17:09:50.756Z,98075.22
2023-05-20T17:12:18.390Z,98080.63
2023-05-20T17:14:46.167Z,98078.22
2023-05-20T17:17:15.165Z,98069.59
2023-05-20T17:19:42.949Z,98068.78
2023-05-20T17:22:10.550Z,98078.28
2023-05-20T17:24:38.037Z,98073.97
2023-05-20T17:27:06.378Z,98072.84
2023-05-20T17:29:33.962Z,98077.22
2023-05-20T17:32:01.556Z,98070.16
2023-05-20T17:34:29.961Z,98072.13
2023-05-20T17:36:57.798Z,98071.31
2023-05-20T17:39:25.261Z,98079.63
2023-05-20T17:41:52.733Z,98077.25
2023-05-20T17:44:20.346Z,98088.59
2023-05-20T17:46:48.845Z,98078.56
2023-05-20T17:49:17.017Z,98089.09
2023-05-20T17:51:46.209Z,98099.94
2023-05-20T17:54:14.086Z,98098.06
2023-05-20T17:56:43.467Z,98108.81
2023-05-20T17:59:11.017Z,98103.16
2023-05-20T18:01:39.025Z,98100.47
2023-05-20T18:04:06.840Z,98104.25
2023-05-20T18:06:34.869Z,98102.88
2023-05-20T18:09:04.865Z,98102.59
2023-05-20T18:11:33.527Z,98119.00
2023-05-20T18:14:02.292Z,98118.44
2023-05-20T18:16:30.838Z,98105.16
2023-05-20T18:18:58.640Z,98114.00
2023-05-20T18:21:26.625Z,98114.19
2023-05-20T18:23:54.621Z,98114.47
2023-05-20T18:26:22.750Z,98124.94
2023-05-20T18:28:50.263Z,98121.91
2023-05-20T18:31:17.869Z,98127.44
2023-05-20T18:33:45.734Z,98130.47
2023-05-20T18:36:13.369Z,98123.97
2023-05-20T18:38:41.935Z,98132.66
2023-05-20T18:41:09.617Z,98126.09
2023-05-20T18:43:37.132Z,98130.22
2023-05-20T18:46:04.747Z,98133.44
2023-05-20T18:48:32.320Z,98139.25
2023-05-20T18:50:59.932Z,98138.91
2023-05-20T18:53:27.548Z,98142.69
2023-05-20T18:55:57.014Z,98133.31
2023-05-20T18:58:24.598Z,98140.22
2023-05-20T19:00:52.154Z,98140.28
2023-05-20T19:03:19.878Z,98140.69
2023-05-20T19:05:47.388Z,98149.25
2023-05-20T19:08:15.888Z,98148.03
2023-05-20T19:10:43.553Z,98146.59
2023-05-20T19:13:11.277Z,98141.72
2023-05-20T19:15:38.807Z,98151.66
2023-05-20T19:18:06.546Z,98150.19
2023-05-20T19:20:34.912Z,98155.53
2023-05-20T19:23:03.186Z,98147.75
2023-05-20T19:25:30.797Z,98158.38
2023-05-20T19:27:58.271Z,98150.75
2023-05-20T19:30:26.009Z,98157.53
2023-05-20T19:32:53.533Z,98146.75
2023-05-20T19:35:21.539Z,98160.63
2023-05-20T19:37:49.092Z,98163.00
2023-05-20T19:40:16.699Z,98170.53
2023-05-20T19:42:44.449Z,98167.28
2023-05-20T19:45:12.086Z,98167.22
2023-05-20T19:47:39.902Z,98166.66
2023-05-20T19:50:08.531Z,98160.94
2023-05-20T19:52:36.262Z,98171.44
2023-05-20T19:55:04.092Z,98170.59
2023-05-20T19:57:31.977Z,98168.03
2023-05-20T19:59:59.496Z,98171.09
2023-05-20T20:02:27.023Z,98172.22
2023-05-20T20:04:55.443Z,98168.88
2023-05-20T20:07:23.956Z,98159.47
2023-05-20T20:09:55.270Z,98168.56
2023-05-20T20:12:23.758Z,98164.66
2023-05-20T20:14:52.350Z,98157.25
2023-05-20T20:17:22.104Z,98152.88
2023-05-20T20:19:53.365Z,98147.56
2023-05-20T20:22:21.271Z,98142.88
2023-05-20T20:24:49.974Z,98146.34
2023-05-20T20:27:19.366Z,98148.16
2023-05-20T20:29:46.914Z,98150.13
2023-05-20T20:32:14.452Z,98152.78
2023-05-20T20:34:42.087Z,98153.59
2023-05-20T20:37:10.192Z,98150.69
2023-05-20T20:39:37.604Z,98153.03
2023-05-20T20:42:05.511Z,98148.16
2023-05-20T20:44:33.524Z,98147.44
2023-05-20T20:47:04.371Z,98145.06
2023-05-20T20:49:32.349Z,98149.78
2023-05-20T20:51:59.886Z,98144.91
2023-05-20T20:54:27.537Z,98144.25
2023-05-20T20:56:56.843Z,98151.66
2023-05-20T20:59:27.011Z,98149.63
2023-05-20T21:01:55.264Z,98142.00
2023-05-20T21:04:22.869Z,98143.63
2023-05-20T21:06:51.125Z,98141.09
2023-05-20T21:09:18.708Z,98143.44
2023-05-20T21:11:49.382Z,98148.97
2023-05-20T21:14:17.144Z,98149.56
2023-05-20T21:16:44.893Z,98144.25
2023-05-20T21:19:12.411Z,98139.78
2023-05-20T21:21:39.926Z,98138.56
2023-05-20T21:24:07.506Z,98138.97
2023-05-20T21:26:35.016Z,98144.44
2023-05-20T21:29:02.688Z,98139.56
2023-05-20T21:31:30.347Z,98130.25
2023-05-20T21:33:57.920Z,98136.59
2023-05-20T21:36:25.635Z,98130.25
2023-05-20T21:38:53.189Z,98131.25
2023-05-20T21:41:21.597Z,98128.41
2023-05-20T21:43:49.109Z,98125.09
2023-05-20T21:46:16.729Z,98117.91
2023-05-20T21:48:44.507Z,98126.63
2023-05-20T21:51:12.083Z,98132.22
2023-05-20T21:53:39.507Z,98130.63
2023-05-20T21:56:07.283Z,98121.75
2023-05-20T21:58:40.810Z,98119.00
2023-05-20T22:01:12.020Z,98122.31
2023-05-20T22:03:40.230Z,98117.94
2023-05-20T22:06:07.889Z,98123.00
2023-05-20T22:08:35.456Z,98117.53
2023-05-20T22:11:07.491Z,98117.53
2023-05-20T22:13:36.347Z,98109.63
2023-05-20T22:16:05.083Z,98109.91
2023-05-20T22:18:32.931Z,98112.31
2023-05-20T22:21:01.292Z,98102.19
2023-05-20T22:23:29.263Z,98089.91
2023-05-20T22:25:57.086Z,98099.63
2023-05-20T22:28:26.389Z,98101.03
2023-05-20T22:30:54.863Z,98101.13
2023-05-20T22:33:23.103Z,98092.00
2023-05-20T22:35:51.621Z,98098.59
2023-05-20T22:38:19.759Z,98092.66
2023-05-20T22:40:47.276Z,98088.59
2023-05-20T22:43:16.646Z,98097.88
2023-05-20T22:45:44.268Z,98090.31
2023-05-20T22:48:12.600Z,98086.34
2023-05-20T22:50:40.459Z,98083.91
2023-05-20T22:53:08.026Z,98080.63
2023-05-20T22:55:38.898Z,98086.59
2023-05-20T22:58:08.066Z,98088.38
2023-05-20T23:00:36.071Z,98083.41
2023-05-20T23:03:03.671Z,98085.22
2023-05-20T23:05:31.890Z,98090.47
2023-05-20T23:07:59.786Z,98087.63
2023-05-20T23:10:27.333Z,98088.59
2023-05-20T23:12:54.878Z,98083.16
2023-05-20T23:15:25.339Z,98095.31
2023-05-20T23:17:53.048Z,98082.06
2023-05-20T23:20:22.422Z,98076.25
2023-05-20T23:22:50.080Z,98081.38
2023-05-20T23:25:17.732Z,98077.38
2023-05-20T23:27:45.671Z,98085.19
2023-05-20T23:30:13.287Z,98083.72
2023-05-20T23:32:40.863Z,98080.59
2023-05-20T23:35:11.792Z,98076.66
2023-05-20T23:37:41.218Z,98071.69
2023-05-20T23:40:12.107Z,98074.53
2023-05-20T23:42:40.168Z,98068.63
2023-05-20T23:45:08.066Z,98067.84
2023-05-20T23:47:36.718Z,98062.41
2023-05-20T23:50:04.448Z,98064.41
2023-05-20T23:52:32.025Z,98058.13
2023-05-20T23:55:00.347Z,98061.09
2023-05-20T23:57:27.994Z,98063.28
2023-05-20T23:59:55.628Z,98048.84
